createdAt,value
2022-10-17T00:01:22.373Z,100.00
2022-10-17T00:04:10.729Z,100.00
2022-10-17T00:09:45.820Z,100.00
2022-10-17T00:15:45.502Z,100.00
2022-10-17T00:21:25.355Z,100.00
2022-10-17T00:27:02.937Z,100.00
2022-10-17T00:32:39.289Z,100.00
2022-10-17T00:38:15.534Z,100.00
2022-10-17T00:44:00.874Z,100.00
2022-10-17T00:49:43.781Z,100.00
2022-10-17T00:55:25.979Z,100.00
2022-10-17T01:01:03.514Z,100.00
2022-10-17T01:06:45.121Z,100.00
2022-10-17T01:15:26.483Z,100.00
2022-10-17T01:21:24.855Z,100.00
2022-10-17T01:27:34.533Z,100.00
2022-10-17T01:36:56.234Z,100.00
2022-10-17T01:42:43.202Z,100.00
2022-10-17T01:48:21.916Z,100.00
2022-10-17T01:54:01.326Z,100.00
2022-10-17T01:59:41.097Z,100.00
2022-10-17T02:05:12.062Z,100.00
2022-10-17T02:08:00.813Z,100.00
2022-10-17T02:13:42.120Z,100.00
2022-10-17T02:19:38.576Z,100.00
2022-10-17T02:25:19.843Z,100.00
2022-10-17T02:28:13.225Z,100.00
2022-10-17T02:36:39.389Z,100.00
2022-10-17T02:42:24.079Z,100.00
2022-10-17T02:48:01.518Z,100.00
2022-10-17T02:53:45.221Z,100.00
2022-10-17T02:59:19.687Z,100.00
2022-10-17T03:04:58.645Z,100.00
2022-10-17T03:07:52.351Z,100.00
2022-10-17T03:13:28.868Z,100.00
2022-10-17T03:16:17.033Z,100.00
2022-10-17T03:21:44.007Z,100.00
2022-10-17T03:27:18.577Z,100.00
2022-10-17T03:30:08.634Z,100.00
2022-10-17T03:32:56.993Z,100.00
2022-10-17T03:38:25.392Z,100.00
2022-10-17T03:44:04.558Z,100.00
2022-10-17T03:49:44.935Z,100.00
2022-10-17T03:58:14.922Z,100.00
2022-10-17T04:01:08.083Z,100.00
2022-10-17T04:03:58.453Z,100.00
2022-10-17T04:06:50.139Z,100.00
2022-10-17T04:12:30.954Z,100.00
2022-10-17T04:18:13.531Z,100.00
2022-10-17T04:23:55.536Z,100.00
2022-10-17T04:29:32.055Z,100.00
2022-10-17T04:32:20.360Z,100.00
2022-10-17T04:37:59.087Z,100.00
2022-10-17T04:43:35.970Z,100.00
2022-10-17T04:46:24.993Z,100.00
2022-10-17T04:52:02.496Z,100.00
2022-10-17T04:54:52.856Z,100.00
2022-10-17T05:00:28.242Z,100.00
2022-10-17T05:06:15.132Z,100.00
2022-10-17T05:11:55.454Z,100.00
2022-10-17T05:17:26.330Z,100.00
2022-10-17T05:20:15.907Z,100.00
2022-10-17T05:25:58.281Z,100.00
2022-10-17T05:28:47.964Z,100.00
2022-10-17T05:31:36.382Z,100.00
2022-10-17T05:37:17.231Z,100.00
2022-10-17T05:40:06.796Z,100.00
2022-10-17T05:42:56.665Z,100.00
2022-10-17T05:48:31.161Z,100.00
2022-10-17T05:51:20.726Z,100.00
2022-10-17T05:57:04.656Z,100.00
2022-10-17T06:02:59.275Z,100.00
2022-10-17T06:05:54.027Z,100.00
2022-10-17T06:08:43.700Z,100.00
2022-10-17T06:14:18.655Z,100.00
2022-10-17T06:17:08.402Z,100.00
2022-10-17T06:22:48.752Z,100.00
2022-10-17T06:28:23.872Z,100.00
2022-10-17T06:31:14.511Z,100.00
2022-10-17T06:42:29.729Z,100.00
2022-10-17T06:48:05.091Z,100.00
2022-10-17T06:50:54.957Z,100.00
2022-10-17T06:56:33.392Z,100.00
2022-10-17T06:59:21.845Z,100.00
2022-10-17T07:02:11.791Z,100.00
2022-10-17T07:10:38.698Z,100.00
2022-10-17T07:16:12.169Z,97.83
2022-10-17T07:21:48.935Z,94.59
2022-10-17T07:27:32.072Z,93.57
2022-10-17T07:33:21.814Z,93.69
2022-10-17T07:38:51.872Z,91.67
2022-10-17T07:44:31.958Z,90.06
2022-10-17T07:47:20.982Z,89.19
2022-10-17T07:50:10.545Z,88.63
2022-10-17T07:53:01.477Z,88.19
2022-10-17T07:55:51.576Z,88.21
2022-10-17T07:58:40.526Z,88.17
2022-10-17T08:04:23.881Z,88.24
2022-10-17T08:12:43.765Z,87.63
2022-10-17T08:15:32.312Z,86.11
2022-10-17T08:18:20.753Z,84.89
2022-10-17T08:23:57.425Z,84.25
2022-10-17T08:26:48.290Z,85.19
2022-10-17T08:32:25.051Z,84.34
2022-10-17T08:38:11.032Z,83.17
2022-10-17T08:44:08.560Z,83.46
2022-10-17T08:46:59.004Z,83.67
2022-10-17T08:49:51.624Z,83.08
2022-10-17T08:55:29.247Z,79.97
2022-10-17T09:01:13.079Z,80.18
2022-10-17T09:04:23.807Z,78.72
2022-10-17T09:07:14.800Z,77.41
2022-10-17T09:10:06.390Z,75.68
2022-10-17T09:12:58.207Z,74.38
2022-10-17T09:18:37.571Z,73.85
2022-10-17T09:21:29.093Z,74.40
2022-10-17T09:27:00.104Z,73.98
2022-10-17T09:29:50.547Z,72.20
2022-10-17T09:35:27.285Z,70.24
2022-10-17T09:38:20.774Z,70.86
2022-10-17T09:43:58.716Z,68.99
2022-10-17T09:49:51.076Z,69.12
2022-10-17T09:55:37.034Z,66.46
2022-10-17T09:58:52.650Z,67.95
2022-10-17T10:01:42.141Z,66.53
2022-10-17T10:07:14.075Z,65.51
2022-10-17T10:10:03.408Z,64.81
2022-10-17T10:15:55.076Z,63.30
2022-10-17T10:21:30.236Z,64.00
2022-10-17T10:24:20.274Z,63.42
2022-10-17T10:32:41.916Z,62.03
2022-10-17T10:35:34.713Z,60.75
2022-10-17T10:41:07.429Z,59.23
2022-10-17T10:47:10.556Z,60.31
2022-10-17T10:50:17.200Z,59.89
2022-10-17T10:53:16.315Z,59.77
2022-10-17T10:56:06.920Z,58.85
2022-10-17T10:59:01.369Z,58.93
2022-10-17T11:04:35.403Z,57.89
2022-10-17T11:07:27.392Z,57.78
2022-10-17T11:13:03.768Z,56.96
2022-10-17T11:18:33.072Z,56.36
2022-10-17T11:21:28.768Z,55.74
2022-10-17T11:29:54.047Z,57.47
2022-10-17T11:35:35.345Z,57.26
2022-10-17T11:41:17.158Z,56.46
2022-10-17T11:46:52.426Z,56.18
2022-10-17T11:53:03.664Z,55.91
2022-10-17T11:58:34.818Z,54.79
2022-10-17T12:07:23.496Z,54.90
2022-10-17T12:13:41.843Z,54.91
2022-10-17T12:19:50.041Z,54.23
2022-10-17T12:25:26.123Z,53.63
2022-10-17T12:28:17.729Z,54.46
2022-10-17T12:33:54.341Z,54.27
2022-10-17T12:36:43.713Z,53.43
2022-10-17T12:42:53.729Z,54.10
2022-10-17T12:49:05.818Z,53.39
2022-10-17T12:55:14.082Z,52.18
2022-10-17T12:58:04.689Z,53.08
2022-10-17T13:03:36.345Z,52.81
2022-10-17T13:06:26.987Z,52.50
2022-10-17T13:12:11.662Z,51.91
2022-10-17T13:17:43.903Z,51.34
2022-10-17T13:23:25.553Z,48.56
2022-10-17T13:29:06.630Z,49.35
2022-10-17T13:34:38.638Z,50.30
2022-10-17T13:40:40.453Z,46.81
2022-10-17T13:46:19.248Z,48.91
2022-10-17T13:48:54.037Z,50.32
2022-10-17T13:54:47.063Z,47.46
2022-10-17T14:03:09.872Z,48.34
2022-10-17T14:06:03.709Z,48.75
2022-10-17T14:11:42.095Z,49.61
2022-10-17T14:17:18.581Z,49.40
2022-10-17T14:25:44.340Z,51.03
2022-10-17T14:31:37.794Z,51.41
2022-10-17T14:37:33.727Z,51.59
2022-10-17T14:43:07.217Z,52.63
2022-10-17T14:46:00.817Z,52.53
2022-10-17T14:52:03.837Z,51.15
2022-10-17T14:57:40.257Z,52.06
2022-10-17T15:03:18.897Z,52.64
2022-10-17T15:09:05.261Z,53.80
2022-10-17T15:11:54.430Z,53.41
2022-10-17T15:14:43.247Z,54.64
2022-10-17T15:17:35.192Z,55.71
2022-10-17T15:23:07.181Z,55.81
2022-10-17T15:29:01.661Z,56.55
2022-10-17T15:31:51.658Z,56.17
2022-10-17T15:34:40.492Z,57.86
2022-10-17T15:37:31.261Z,57.26
2022-10-17T15:43:17.375Z,58.04
2022-10-17T15:48:49.158Z,59.09
2022-10-17T15:54:36.703Z,59.85
2022-10-17T15:57:27.578Z,60.37
2022-10-17T16:03:19.668Z,62.37
2022-10-17T16:08:56.845Z,63.43
2022-10-17T16:14:28.253Z,64.89
2022-10-17T16:20:04.534Z,66.21
2022-10-17T16:25:31.474Z,66.87
2022-10-17T16:31:20.302Z,68.11
2022-10-17T16:36:56.740Z,69.48
2022-10-17T16:42:32.928Z,71.25
2022-10-17T16:45:30.337Z,71.45
2022-10-17T16:51:07.847Z,72.13
2022-10-17T16:53:58.446Z,72.87
2022-10-17T16:59:34.776Z,73.99
2022-10-17T17:05:12.334Z,74.78
2022-10-17T17:10:51.550Z,74.96
2022-10-17T17:16:30.371Z,75.33
2022-10-17T17:22:07.388Z,77.66
2022-10-17T17:27:49.579Z,78.51
2022-10-17T17:33:28.403Z,78.01
2022-10-17T17:40:02.804Z,79.22
2022-10-17T17:48:19.429Z,80.71
2022-10-17T17:53:53.360Z,81.64
2022-10-17T17:59:31.126Z,82.44
2022-10-17T18:05:08.985Z,82.24
2022-10-17T18:10:44.583Z,83.47
2022-10-17T18:13:33.234Z,83.17
2022-10-17T18:19:11.762Z,82.49
2022-10-17T18:24:42.059Z,81.95
2022-10-17T18:30:16.328Z,83.56
2022-10-17T18:33:06.777Z,83.61
2022-10-17T18:38:39.631Z,85.05
2022-10-17T18:44:09.104Z,85.52
2022-10-17T18:47:55.552Z,86.17
2022-10-17T18:52:45.364Z,87.08
2022-10-17T18:58:18.694Z,88.19
2022-10-17T19:03:59.166Z,88.48
2022-10-17T19:09:36.541Z,87.62
2022-10-17T19:12:25.939Z,87.41
2022-10-17T19:18:19.579Z,88.78
2022-10-17T19:24:00.231Z,88.75
2022-10-17T19:29:44.172Z,90.03
2022-10-17T19:35:24.499Z,90.94
2022-10-17T19:40:54.821Z,91.62
2022-10-17T19:46:31.157Z,91.72
2022-10-17T19:52:14.890Z,92.54
2022-10-17T19:55:04.093Z,92.73
2022-10-17T20:00:49.230Z,93.31
2022-10-17T20:03:37.451Z,93.33
2022-10-17T20:06:26.286Z,93.49
2022-10-17T20:23:08.704Z,94.62
2022-10-17T20:28:47.679Z,94.57
2022-10-17T20:34:20.458Z,95.34
2022-10-17T20:40:33.213Z,96.11
2022-10-17T20:45:51.549Z,95.69
2022-10-17T20:51:20.902Z,97.04
2022-10-17T20:57:01.064Z,98.06
2022-10-17T20:59:48.386Z,98.37
2022-10-17T21:05:24.738Z,98.92
2022-10-17T21:11:11.316Z,98.79
2022-10-17T21:16:50.079Z,99.73
2022-10-17T21:22:20.803Z,98.70
2022-10-17T21:27:59.728Z,100.00
2022-10-17T21:33:40.585Z,98.37
2022-10-17T21:36:29.263Z,98.38
2022-10-17T21:42:06.946Z,97.89
2022-10-17T21:44:57.497Z,97.88
2022-10-17T21:48:11.112Z,97.50
2022-10-17T21:50:36.800Z,96.79
2022-10-17T21:56:14.845Z,97.29
2022-10-17T22:01:49.129Z,97.06
2022-10-17T22:04:37.154Z,96.61
2022-10-17T22:07:29.078Z,96.74
2022-10-17T22:10:20.672Z,96.68
2022-10-17T22:13:10.222Z,96.75
2022-10-17T22:18:49.084Z,97.65
2022-10-17T22:24:40.494Z,96.12
2022-10-17T22:30:37.101Z,97.82
2022-10-17T22:36:15.912Z,99.79
2022-10-17T22:41:45.849Z,99.47
2022-10-17T22:44:34.087Z,99.49
2022-10-17T22:47:22.334Z,100.00
2022-10-17T22:50:12.375Z,100.00
2022-10-17T22:53:02.073Z,100.00
2022-10-17T22:58:52.785Z,100.00
2022-10-17T23:01:41.300Z,100.00
2022-10-17T23:04:30.594Z,100.00
2022-10-17T23:10:12.921Z,100.00
2022-10-17T23:15:52.275Z,100.00
2022-10-17T23:21:28.477Z,100.00
2022-10-17T23:24:16.729Z,100.00
2022-10-17T23:29:58.358Z,100.00
2022-10-17T23:32:46.422Z,100.00
2022-10-17T23:35:35.216Z,100.00
2022-10-17T23:38:23.523Z,100.00
2022-10-17T23:41:11.708Z,100.00
2022-10-17T23:46:42.639Z,100.00
2022-10-17T23:52:31.674Z,100.00
2022-10-17T23:58:03.637Z,100.00
